createdAt,value
2022-09-16T00:00:52.955Z,2.15
2022-09-16T00:03:20.788Z,2.17
2022-09-16T00:05:50.184Z,2.30
2022-09-16T00:08:17.933Z,2.65
2022-09-16T00:10:45.747Z,2.28
2022-09-16T00:13:13.905Z,2.20
2022-09-16T00:15:50.175Z,3.10
2022-09-16T00:18:17.903Z,2.20
2022-09-16T00:20:50.277Z,2.55
2022-09-16T00:23:18.560Z,2.17
2022-09-16T00:25:46.251Z,2.35
2022-09-16T00:28:14.060Z,2.83
2022-09-16T00:30:41.781Z,2.00
2022-09-16T00:33:10.805Z,2.37
2022-09-16T00:35:38.513Z,2.37
2022-09-16T00:38:06.306Z,2.08
2022-09-16T00:40:34.321Z,2.03
2022-09-16T00:43:02.275Z,2.30
2022-09-16T00:45:32.814Z,2.05
2022-09-16T00:48:04.808Z,2.20
2022-09-16T00:50:41.801Z,2.50
2022-09-16T00:53:11.894Z,2.28
2022-09-16T00:55:39.713Z,2.45
2022-09-16T00:58:21.903Z,1.98
2022-09-16T01:00:49.795Z,2.53
2022-09-16T01:03:17.771Z,2.37
2022-09-16T01:05:45.449Z,2.28
2022-09-16T01:08:13.910Z,2.40
2022-09-16T01:10:43.250Z,2.00
2022-09-16T01:13:12.544Z,2.35
2022-09-16T01:15:58.165Z,2.50
2022-09-16T01:18:37.728Z,2.20
2022-09-16T01:21:24.129Z,2.40
2022-09-16T01:23:54.856Z,2.17
2022-09-16T01:26:37.699Z,2.20
2022-09-16T01:29:59.336Z,2.42
2022-09-16T01:32:30.847Z,2.10
2022-09-16T01:34:59.986Z,2.28
2022-09-16T01:37:54.822Z,2.40
2022-09-16T01:40:36.213Z,2.65
2022-09-16T01:43:07.300Z,2.22
2022-09-16T01:45:41.269Z,2.33
2022-09-16T01:48:33.968Z,2.30
2022-09-16T01:51:09.102Z,2.37
2022-09-16T01:54:08.238Z,2.50
2022-09-16T01:56:59.201Z,2.00
2022-09-16T01:59:39.750Z,2.42
2022-09-16T02:02:17.514Z,2.53
2022-09-16T02:04:50.427Z,2.30
2022-09-16T02:07:19.306Z,1.92
2022-09-16T02:09:54.015Z,2.50
2022-09-16T02:12:27.036Z,2.50
2022-09-16T02:14:56.372Z,2.70
2022-09-16T02:17:25.044Z,2.40
2022-09-16T02:20:04.668Z,2.20
2022-09-16T02:22:54.746Z,2.22
2022-09-16T02:25:22.441Z,2.42
2022-09-16T02:27:50.586Z,2.40
2022-09-16T02:30:20.269Z,2.53
2022-09-16T02:32:51.029Z,2.53
2022-09-16T02:35:19.575Z,2.70
2022-09-16T02:37:56.939Z,3.30
2022-09-16T02:40:39.149Z,3.05
2022-09-16T02:43:06.900Z,3.33
2022-09-16T02:45:45.782Z,3.22
2022-09-16T02:48:31.563Z,3.30
2022-09-16T02:51:07.914Z,3.55
2022-09-16T02:53:48.946Z,3.33
2022-09-16T02:56:35.795Z,3.58
2022-09-16T02:59:03.762Z,3.60
2022-09-16T03:03:57.704Z,3.10
2022-09-16T03:06:30.123Z,3.47
2022-09-16T03:08:59.899Z,3.67
2022-09-16T03:11:30.704Z,3.53
2022-09-16T03:13:59.256Z,3.50
2022-09-16T03:16:41.571Z,3.62
2022-09-16T03:19:17.565Z,3.22
2022-09-16T03:22:16.806Z,3.67
2022-09-16T03:24:55.740Z,3.72
2022-09-16T03:27:35.577Z,3.40
2022-09-16T03:30:03.109Z,3.65
2022-09-16T03:33:04.908Z,3.62
2022-09-16T03:35:44.719Z,3.85
2022-09-16T03:38:12.456Z,3.58
2022-09-16T03:40:40.189Z,3.75
2022-09-16T03:43:14.092Z,3.70
2022-09-16T03:45:43.760Z,3.67
2022-09-16T03:48:12.042Z,3.80
2022-09-16T03:50:39.870Z,3.55
2022-09-16T03:53:07.635Z,3.80
2022-09-16T03:55:35.403Z,4.10
2022-09-16T03:58:03.155Z,4.68
2022-09-16T04:00:30.867Z,4.03
2022-09-16T04:02:59.789Z,3.85
2022-09-16T04:05:27.925Z,3.97
2022-09-16T04:07:55.687Z,4.07
2022-09-16T04:10:23.454Z,4.03
2022-09-16T04:12:51.179Z,4.00
2022-09-16T04:15:18.973Z,3.92
2022-09-16T04:17:46.731Z,3.50
2022-09-16T04:20:14.813Z,3.53
2022-09-16T04:22:42.498Z,3.87
2022-09-16T04:25:11.119Z,3.90
2022-09-16T04:27:39.327Z,3.83
2022-09-16T04:30:07.407Z,3.47
2022-09-16T04:32:35.178Z,4.05
2022-09-16T04:35:02.888Z,4.00
2022-09-16T04:37:33.596Z,4.22
2022-09-16T04:40:05.220Z,4.20
2022-09-16T04:42:33.129Z,4.03
2022-09-16T04:45:01.667Z,3.90
2022-09-16T04:47:30.460Z,4.30
2022-09-16T04:49:58.178Z,4.28
2022-09-16T04:52:25.927Z,4.50
2022-09-16T04:54:53.637Z,3.70
2022-09-16T04:57:21.367Z,3.90
2022-09-16T04:59:49.072Z,4.22
2022-09-16T05:02:16.815Z,3.72
2022-09-16T05:04:44.575Z,4.10
2022-09-16T05:07:12.317Z,3.78
2022-09-16T05:09:39.977Z,3.80
2022-09-16T05:12:08.234Z,3.90
2022-09-16T05:14:35.983Z,3.37
2022-09-16T05:17:03.735Z,3.55
2022-09-16T05:19:31.777Z,3.15
2022-09-16T05:21:59.722Z,3.62
2022-09-16T05:24:27.579Z,3.37
2022-09-16T05:26:55.285Z,3.80
2022-09-16T05:29:23.189Z,3.20
2022-09-16T05:31:51.839Z,3.83
2022-09-16T05:34:20.989Z,3.53
2022-09-16T05:36:49.344Z,4.20
2022-09-16T05:39:24.231Z,4.05
2022-09-16T05:41:57.847Z,3.75
2022-09-16T05:44:26.469Z,4.37
2022-09-16T05:46:54.406Z,3.87
2022-09-16T05:49:22.144Z,4.50
2022-09-16T05:51:50.181Z,4.20
2022-09-16T05:54:19.635Z,4.68
2022-09-16T05:56:47.925Z,3.83
2022-09-16T05:59:15.995Z,3.75
2022-09-16T06:01:43.830Z,3.85
2022-09-16T06:04:13.186Z,3.97
2022-09-16T06:06:42.455Z,4.10
2022-09-16T06:09:25.373Z,4.05
2022-09-16T06:11:58.009Z,3.28
2022-09-16T06:14:29.335Z,3.40
2022-09-16T06:16:57.132Z,3.80
2022-09-16T06:19:24.953Z,3.33
2022-09-16T06:21:52.852Z,3.90
2022-09-16T06:24:20.897Z,3.85
2022-09-16T06:26:49.073Z,3.72
2022-09-16T06:29:17.031Z,3.92
2022-09-16T06:31:44.744Z,4.35
2022-09-16T06:34:15.935Z,3.85
2022-09-16T06:36:45.283Z,4.55
2022-09-16T06:39:14.364Z,4.12
2022-09-16T06:41:42.207Z,4.15
2022-09-16T06:44:10.001Z,4.05
2022-09-16T06:46:37.766Z,3.65
2022-09-16T06:49:06.616Z,3.85
2022-09-16T06:51:34.827Z,3.33
2022-09-16T06:54:04.447Z,3.40
2022-09-16T06:56:32.445Z,3.20
2022-09-16T06:59:00.218Z,3.20
2022-09-16T07:01:29.597Z,3.30
2022-09-16T07:03:58.649Z,3.37
2022-09-16T07:06:49.581Z,3.42
2022-09-16T07:09:16.753Z,3.37
2022-09-16T07:11:44.504Z,3.62
2022-09-16T07:14:12.318Z,3.28
2022-09-16T07:16:40.103Z,3.47
2022-09-16T07:19:07.927Z,3.30
2022-09-16T07:21:35.715Z,3.67
2022-09-16T07:24:03.932Z,3.62
2022-09-16T07:26:33.861Z,3.58
2022-09-16T07:29:03.208Z,3.33
2022-09-16T07:31:32.399Z,3.47
2022-09-16T07:34:03.988Z,3.03
2022-09-16T07:36:34.830Z,3.35
2022-09-16T07:39:02.674Z,3.53
2022-09-16T07:41:31.939Z,3.90
2022-09-16T07:44:00.388Z,3.50
2022-09-16T07:46:29.757Z,3.85
2022-09-16T07:48:57.791Z,4.18
2022-09-16T07:51:26.045Z,3.47
2022-09-16T07:54:03.317Z,3.60
2022-09-16T07:56:32.661Z,3.70
2022-09-16T07:59:00.340Z,3.78
2022-09-16T08:01:28.327Z,4.00
2022-09-16T08:03:56.809Z,3.28
2022-09-16T08:06:26.131Z,4.30
2022-09-16T08:08:54.774Z,4.00
2022-09-16T08:11:22.945Z,4.03
2022-09-16T08:13:50.793Z,6.93
2022-09-16T08:16:20.965Z,4.53
2022-09-16T08:18:51.373Z,4.15
2022-09-16T08:21:21.062Z,4.40
2022-09-16T08:23:49.433Z,4.60
2022-09-16T08:26:17.713Z,5.22
2022-09-16T08:29:07.395Z,19.27
2022-09-16T08:31:33.860Z,4.95
2022-09-16T08:34:01.549Z,3.85
2022-09-16T08:36:29.312Z,4.00
2022-09-16T08:38:57.712Z,3.62
2022-09-16T08:41:25.343Z,3.65
2022-09-16T08:44:23.491Z,3.70
2022-09-16T08:47:02.267Z,3.62
2022-09-16T08:49:43.981Z,3.83
2022-09-16T08:52:25.225Z,3.53
2022-09-16T08:54:56.023Z,4.03
2022-09-16T08:57:24.662Z,3.50
2022-09-16T09:00:02.217Z,3.22
2022-09-16T09:02:49.020Z,3.45
2022-09-16T09:05:26.986Z,3.42
2022-09-16T09:08:15.250Z,3.60
2022-09-16T09:10:54.659Z,3.03
2022-09-16T09:13:44.959Z,3.00
2022-09-16T09:16:24.199Z,3.05
2022-09-16T09:19:13.709Z,2.85
2022-09-16T09:21:53.261Z,3.00
2022-09-16T09:25:13.413Z,3.22
2022-09-16T09:27:46.976Z,3.28
2022-09-16T09:30:26.452Z,2.47
2022-09-16T09:33:01.762Z,2.40
2022-09-16T09:35:29.489Z,2.45
2022-09-16T09:38:09.529Z,2.60
2022-09-16T09:40:47.402Z,2.67
2022-09-16T09:43:25.190Z,1.67
2022-09-16T09:46:03.511Z,2.20
2022-09-16T09:48:34.984Z,2.05
2022-09-16T09:51:07.234Z,2.47
2022-09-16T09:53:38.206Z,2.50
2022-09-16T09:56:14.455Z,2.20
2022-09-16T09:59:09.850Z,2.50
2022-09-16T10:01:37.659Z,2.42
2022-09-16T10:04:18.422Z,2.05
2022-09-16T10:06:47.123Z,2.15
2022-09-16T10:09:15.818Z,3.37
2022-09-16T10:11:49.825Z,2.87
2022-09-16T10:14:47.382Z,2.35
2022-09-16T10:17:18.577Z,2.30
2022-09-16T10:20:28.361Z,2.03
2022-09-16T10:23:17.549Z,2.37
2022-09-16T10:25:45.451Z,2.15
2022-09-16T10:28:25.325Z,1.90
2022-09-16T10:30:54.858Z,0.88
2022-09-16T10:33:31.575Z,0.60
2022-09-16T10:36:07.551Z,0.90
2022-09-16T10:38:39.528Z,0.77
2022-09-16T10:41:18.243Z,0.90
2022-09-16T10:44:05.964Z,0.70
2022-09-16T10:46:33.946Z,0.50
2022-09-16T10:49:04.038Z,0.82
2022-09-16T10:51:34.516Z,0.60
2022-09-16T10:54:04.049Z,0.43
2022-09-16T10:56:36.712Z,0.60
2022-09-16T10:59:10.967Z,0.50
2022-09-16T11:01:58.126Z,0.50
2022-09-16T11:04:32.382Z,0.50
2022-09-16T11:07:21.843Z,0.60
2022-09-16T11:10:12.573Z,0.40
2022-09-16T11:13:03.789Z,0.65
2022-09-16T11:15:57.478Z,0.70
2022-09-16T11:18:43.425Z,0.80
2022-09-16T11:21:46.780Z,0.60
2022-09-16T11:24:25.089Z,0.57
2022-09-16T11:27:30.893Z,0.70
2022-09-16T11:30:09.498Z,0.60
2022-09-16T11:32:42.963Z,0.62
2022-09-16T11:35:48.838Z,0.88
2022-09-16T11:38:27.939Z,0.52
2022-09-16T11:41:16.428Z,0.93
2022-09-16T11:44:02.580Z,0.70
2022-09-16T11:46:48.994Z,0.60
2022-09-16T11:49:40.790Z,0.70
2022-09-16T11:52:53.919Z,0.90
2022-09-16T11:55:58.454Z,1.05
2022-09-16T11:58:35.698Z,0.70
2022-09-16T12:01:10.472Z,0.93
2022-09-16T12:03:56.981Z,1.02
2022-09-16T12:06:25.997Z,1.00
2022-09-16T12:09:17.435Z,1.00
2022-09-16T12:11:47.915Z,0.88
2022-09-16T12:14:37.863Z,1.00
2022-09-16T12:17:19.313Z,1.30
2022-09-16T12:20:00.423Z,1.40
2022-09-16T12:22:32.795Z,1.48
2022-09-16T12:25:28.472Z,1.67
2022-09-16T12:28:09.239Z,1.60
2022-09-16T12:30:39.253Z,1.73
2022-09-16T12:33:23.541Z,1.50
2022-09-16T12:36:07.647Z,1.70
2022-09-16T12:38:36.025Z,1.70
2022-09-16T12:41:27.051Z,1.55
2022-09-16T12:44:23.492Z,1.60
2022-09-16T12:47:20.519Z,2.00
2022-09-16T12:50:01.683Z,1.73
2022-09-16T12:52:35.349Z,1.83
2022-09-16T12:55:09.975Z,1.80
2022-09-16T12:58:00.356Z,1.62
2022-09-16T13:00:46.448Z,1.80
2022-09-16T13:03:21.086Z,1.87
2022-09-16T13:05:54.270Z,1.85
2022-09-16T13:08:30.948Z,1.62
2022-09-16T13:11:38.935Z,1.60
2022-09-16T13:13:57.117Z,1.90
2022-09-16T13:16:36.172Z,1.95
2022-09-16T13:19:10.040Z,1.95
2022-09-16T13:21:45.850Z,1.85
2022-09-16T13:24:14.017Z,1.62
2022-09-16T13:26:43.588Z,1.50
2022-09-16T13:29:33.380Z,1.50
2022-09-16T13:32:01.393Z,1.67
2022-09-16T13:34:29.535Z,1.85
2022-09-16T13:36:57.800Z,1.85
2022-09-16T13:39:33.895Z,2.00
2022-09-16T13:42:17.545Z,1.90
2022-09-16T13:44:45.897Z,1.73
2022-09-16T13:47:14.196Z,1.95
2022-09-16T13:49:51.087Z,1.75
2022-09-16T13:52:27.711Z,2.08
2022-09-16T13:55:12.807Z,1.90
2022-09-16T13:58:17.800Z,2.10
2022-09-16T14:00:54.161Z,2.03
2022-09-16T14:03:32.412Z,1.92
2022-09-16T14:06:45.132Z,2.40
2022-09-16T14:09:26.741Z,2.15
2022-09-16T14:12:05.157Z,2.28
2022-09-16T14:17:26.778Z,2.22
2022-09-16T14:19:57.917Z,2.00
2022-09-16T14:22:28.685Z,2.20
2022-09-16T14:25:06.387Z,2.30
2022-09-16T14:27:41.191Z,2.50
2022-09-16T14:30:21.376Z,2.20
2022-09-16T14:32:49.652Z,2.65
2022-09-16T14:35:23.184Z,2.85
2022-09-16T14:37:54.136Z,2.58
2022-09-16T14:40:24.332Z,2.65
2022-09-16T14:43:03.487Z,2.62
2022-09-16T14:45:32.144Z,2.70
2022-09-16T14:48:01.890Z,2.47
2022-09-16T14:50:31.843Z,2.67
2022-09-16T14:53:04.278Z,2.10
2022-09-16T14:55:34.756Z,2.40
2022-09-16T14:58:02.950Z,2.40
2022-09-16T15:00:42.412Z,1.92
2022-09-16T15:03:25.935Z,2.10
2022-09-16T15:05:54.295Z,2.05
2022-09-16T15:08:32.943Z,2.17
2022-09-16T15:11:04.656Z,2.65
2022-09-16T15:13:37.041Z,2.15
2022-09-16T15:16:13.498Z,2.22
2022-09-16T15:18:46.211Z,2.00
2022-09-16T15:21:19.954Z,1.87
2022-09-16T15:24:00.826Z,1.75
2022-09-16T15:26:44.452Z,2.00
2022-09-16T15:29:35.132Z,1.65
2022-09-16T15:32:22.951Z,1.92
2022-09-16T15:35:11.610Z,1.90
2022-09-16T15:37:39.486Z,1.92
2022-09-16T15:40:22.725Z,2.08
2022-09-16T15:43:01.786Z,1.83
2022-09-16T15:45:29.660Z,2.03
2022-09-16T15:48:24.164Z,1.90
2022-09-16T15:50:57.017Z,1.80
2022-09-16T15:53:30.920Z,1.87
2022-09-16T15:56:02.872Z,1.90
2022-09-16T15:58:33.820Z,2.62
2022-09-16T16:01:16.053Z,1.90
2022-09-16T16:03:46.554Z,1.90
2022-09-16T16:06:14.587Z,2.00
2022-09-16T16:08:43.594Z,1.80
2022-09-16T16:11:13.859Z,2.15
2022-09-16T16:13:42.254Z,1.62
2022-09-16T16:16:10.598Z,1.92
2022-09-16T16:18:38.520Z,1.92
2022-09-16T16:21:09.612Z,1.73
2022-09-16T16:23:37.785Z,2.20
2022-09-16T16:26:09.727Z,1.90
2022-09-16T16:28:37.633Z,1.95
2022-09-16T16:31:23.548Z,1.80
2022-09-16T16:33:51.582Z,1.90
2022-09-16T16:36:20.481Z,1.62
2022-09-16T16:38:49.433Z,1.80
2022-09-16T16:41:24.181Z,2.17
2022-09-16T16:43:52.138Z,1.80
2022-09-16T16:46:20.039Z,1.73
2022-09-16T16:48:48.275Z,1.98
2022-09-16T16:51:16.263Z,2.20
2022-09-16T16:53:44.134Z,1.80
2022-09-16T16:56:15.463Z,1.80
2022-09-16T16:58:46.543Z,1.98
2022-09-16T17:01:18.597Z,1.90
2022-09-16T17:03:47.568Z,2.17
2022-09-16T17:06:21.655Z,2.00
2022-09-16T17:08:50.429Z,2.10
2022-09-16T17:11:20.797Z,1.75
2022-09-16T17:13:51.268Z,2.30
2022-09-16T17:16:23.451Z,2.20
2022-09-16T17:18:51.644Z,2.28
2022-09-16T17:21:24.797Z,2.00
2022-09-16T17:23:53.122Z,2.00
2022-09-16T17:26:21.249Z,2.37
2022-09-16T17:28:49.952Z,2.20
2022-09-16T17:31:27.817Z,2.30
2022-09-16T17:34:04.222Z,2.20
2022-09-16T17:36:35.912Z,2.33
2022-09-16T17:39:08.215Z,1.80
2022-09-16T17:41:36.232Z,2.08
2022-09-16T17:44:08.332Z,2.42
2022-09-16T17:46:36.384Z,1.98
2022-09-16T17:49:06.078Z,2.10
2022-09-16T17:51:34.486Z,1.95
2022-09-16T17:54:04.785Z,1.75
2022-09-16T17:56:32.635Z,2.25
2022-09-16T17:59:00.505Z,1.85
2022-09-16T18:01:28.529Z,1.95
2022-09-16T18:03:57.270Z,2.30
2022-09-16T18:06:27.902Z,2.20
2022-09-16T18:08:55.773Z,3.00
2022-09-16T18:11:23.753Z,2.45
2022-09-16T18:13:56.350Z,2.60
2022-09-16T18:16:24.511Z,2.25
2022-09-16T18:18:54.000Z,2.58
2022-09-16T18:21:22.170Z,2.40
2022-09-16T18:23:52.727Z,2.20
2022-09-16T18:26:20.527Z,2.10
2022-09-16T18:29:09.082Z,2.00
2022-09-16T18:31:37.179Z,2.40
2022-09-16T18:34:05.127Z,2.15
2022-09-16T18:36:34.538Z,2.45
2022-09-16T18:39:02.963Z,2.55
2022-09-16T18:41:37.648Z,2.62
2022-09-16T18:44:22.378Z,2.37
2022-09-16T18:46:50.430Z,2.10
2022-09-16T18:49:18.922Z,1.98
2022-09-16T18:51:51.659Z,2.75
2022-09-16T18:54:27.069Z,2.30
2022-09-16T18:56:58.372Z,2.87
2022-09-16T18:59:29.397Z,2.65
2022-09-16T19:01:59.059Z,3.83
2022-09-16T19:04:29.561Z,3.80
2022-09-16T19:07:00.804Z,3.37
2022-09-16T19:09:28.684Z,3.42
2022-09-16T19:11:57.359Z,2.30
2022-09-16T19:14:28.410Z,2.95
2022-09-16T19:16:56.364Z,2.87
2022-09-16T19:19:24.351Z,3.20
2022-09-16T19:21:52.231Z,18.20
2022-09-16T19:24:24.362Z,3.50
2022-09-16T19:26:53.958Z,2.95
2022-09-16T19:29:22.125Z,2.95
2022-09-16T19:31:52.891Z,2.75
2022-09-16T19:34:21.153Z,2.97
2022-09-16T19:36:49.136Z,2.70
2022-09-16T19:39:17.091Z,2.87
2022-09-16T19:41:45.072Z,2.62
2022-09-16T19:44:17.630Z,2.47
2022-09-16T19:46:47.962Z,2.60
2022-09-16T19:49:18.368Z,2.70
2022-09-16T19:51:46.605Z,2.85
2022-09-16T19:54:14.798Z,2.60
2022-09-16T19:56:45.894Z,2.85
2022-09-16T19:59:16.278Z,2.53
2022-09-16T20:01:45.047Z,2.40
2022-09-16T20:04:13.098Z,2.40
2022-09-16T20:06:42.162Z,2.22
2022-09-16T20:09:14.851Z,2.37
2022-09-16T20:11:44.855Z,2.17
2022-09-16T20:14:14.984Z,1.77
2022-09-16T20:16:42.896Z,1.75
2022-09-16T20:19:13.011Z,1.77
2022-09-16T20:21:41.132Z,1.70
2022-09-16T20:24:09.568Z,1.73
2022-09-16T20:26:37.429Z,1.95
2022-09-16T20:29:05.735Z,1.60
2022-09-16T20:31:35.007Z,2.00
2022-09-16T20:34:03.182Z,1.62
2022-09-16T20:36:32.174Z,1.60
2022-09-16T20:39:01.519Z,1.58
2022-09-16T20:41:30.713Z,1.70
2022-09-16T20:43:58.853Z,1.80
2022-09-16T20:46:32.197Z,1.60
2022-09-16T20:49:01.920Z,1.77
2022-09-16T20:51:34.688Z,1.50
2022-09-16T20:54:08.149Z,1.70
2022-09-16T20:56:38.766Z,1.50
2022-09-16T20:59:10.495Z,1.12
2022-09-16T21:01:39.387Z,1.23
2022-09-16T21:04:09.256Z,1.05
2022-09-16T21:06:37.341Z,1.37
2022-09-16T21:09:07.392Z,1.00
2022-09-16T21:11:35.271Z,1.92
2022-09-16T21:14:07.666Z,1.50
2022-09-16T21:16:37.334Z,1.10
2022-09-16T21:19:06.288Z,1.05
2022-09-16T21:21:34.932Z,1.00
2022-09-16T21:24:03.278Z,0.88
2022-09-16T21:26:32.488Z,0.90
2022-09-16T21:29:01.970Z,1.17
2022-09-16T21:31:31.541Z,0.82
2022-09-16T21:33:59.723Z,0.80
2022-09-16T21:36:30.290Z,0.77
2022-09-16T21:38:58.623Z,0.83
2022-09-16T21:41:26.936Z,0.80
2022-09-16T21:43:59.440Z,0.82
2022-09-16T21:46:29.577Z,0.97
2022-09-16T21:49:02.449Z,0.82
2022-09-16T21:51:36.361Z,0.70
2022-09-16T21:54:05.589Z,0.80
2022-09-16T21:56:33.702Z,0.70
2022-09-16T21:59:01.991Z,0.70
2022-09-16T22:01:33.849Z,0.80
2022-09-16T22:04:03.451Z,0.65
2022-09-16T22:06:31.470Z,0.73
2022-09-16T22:09:02.123Z,0.88
2022-09-16T22:11:33.196Z,0.57
2022-09-16T22:14:01.872Z,0.60
2022-09-16T22:16:31.150Z,1.00
2022-09-16T22:19:03.511Z,0.60
2022-09-16T22:21:35.410Z,0.80
2022-09-16T22:24:03.393Z,0.80
2022-09-16T22:26:31.445Z,0.70
2022-09-16T22:28:59.296Z,0.73
2022-09-16T22:31:29.133Z,0.90
2022-09-16T22:33:57.808Z,0.80
2022-09-16T22:36:27.505Z,0.80
2022-09-16T22:38:57.220Z,0.57
2022-09-16T22:41:25.807Z,0.90
2022-09-16T22:43:54.389Z,1.05
2022-09-16T22:46:26.844Z,0.70
2022-09-16T22:48:55.686Z,0.85
2022-09-16T22:51:23.781Z,0.57
2022-09-16T22:53:51.663Z,0.75
2022-09-16T22:56:21.231Z,0.93
2022-09-16T22:58:52.944Z,0.60
2022-09-16T23:01:22.581Z,0.60
2022-09-16T23:03:59.456Z,1.00
2022-09-16T23:06:28.153Z,0.70
2022-09-16T23:08:55.971Z,0.70
2022-09-16T23:11:25.438Z,1.07
2022-09-16T23:13:55.913Z,0.70
2022-09-16T23:16:31.350Z,1.08
2022-09-16T23:19:00.796Z,0.60
2022-09-16T23:21:28.657Z,0.98
2022-09-16T23:23:57.481Z,0.60
2022-09-16T23:26:27.369Z,0.80
2022-09-16T23:28:55.899Z,0.70
2022-09-16T23:31:26.528Z,0.80
2022-09-16T23:33:54.480Z,0.80
2022-09-16T23:36:22.326Z,0.70
2022-09-16T23:38:50.175Z,1.07
2022-09-16T23:41:22.042Z,0.80
2022-09-16T23:43:53.078Z,0.70
2022-09-16T23:46:22.076Z,0.77
2022-09-16T23:48:52.692Z,0.80
2022-09-16T23:51:25.877Z,0.70
2022-09-16T23:53:55.753Z,0.98
2022-09-16T23:56:23.447Z,1.00
2022-09-16T23:58:52.140Z,0.77
